sensor_id;sensor_type;location;lat;lon;timestamp;pressure;altitude;pressure_sealevel;temperature;humidity
46583;BME280;32309;48.858;8.252;2024-03-06T00:01:20;100467.53;;;5.95;98.58
46583;BME280;32309;48.858;8.252;2024-03-06T00:03:20;100467.47;;;5.97;98.45
46583;BME280;32309;48.858;8.252;2024-03-06T00:05:20;100456.31;;;5.98;99.16
46583;BME280;32309;48.858;8.252;2024-03-06T00:07:21;100464.75;;;6.02;98.54
46583;BME280;32309;48.858;8.252;2024-03-06T00:09:21;100471.66;;;6.01;98.70
46583;BME280;32309;48.858;8.252;2024-03-06T00:11:22;100466.50;;;6.01;99.05
46583;BME280;32309;48.858;8.252;2024-03-06T00:13:22;100475.97;;;6.01;98.75
46583;BME280;32309;48.858;8.252;2024-03-06T00:15:23;100472.59;;;5.98;97.12
46583;BME280;32309;48.858;8.252;2024-03-06T00:17:23;100473.44;;;5.97;98.06
46583;BME280;32309;48.858;8.252;2024-03-06T00:19:23;100471.75;;;5.96;98.22
46583;BME280;32309;48.858;8.252;2024-03-06T00:21:24;100477.03;;;5.93;98.07
46583;BME280;32309;48.858;8.252;2024-03-06T00:23:24;100466.78;;;5.92;98.16
46583;BME280;32309;48.858;8.252;2024-03-06T00:25:25;100471.88;;;5.93;98.55
46583;BME280;32309;48.858;8.252;2024-03-06T00:27:25;100472.75;;;5.94;98.03
46583;BME280;32309;48.858;8.252;2024-03-06T00:29:25;100480.47;;;5.92;97.88
46583;BME280;32309;48.858;8.252;2024-03-06T00:31:25;100488.25;;;5.91;97.90
46583;BME280;32309;48.858;8.252;2024-03-06T00:33:26;100484.84;;;5.90;99.07
46583;BME280;32309;48.858;8.252;2024-03-06T00:35:26;100485.75;;;5.89;98.16
46583;BME280;32309;48.858;8.252;2024-03-06T00:37:29;100484.94;;;5.87;97.99
46583;BME280;32309;48.858;8.252;2024-03-06T00:39:29;100483.31;;;5.84;98.43
46583;BME280;32309;48.858;8.252;2024-03-06T00:41:31;100484.22;;;5.83;98.13
46583;BME280;32309;48.858;8.252;2024-03-06T00:43:31;100486.81;;;5.83;98.39
46583;BME280;32309;48.858;8.252;2024-03-06T00:45:31;100488.44;;;5.86;99.42
46583;BME280;32309;48.858;8.252;2024-03-06T00:47:32;100485.81;;;5.88;98.89
46583;BME280;32309;48.858;8.252;2024-03-06T00:49:34;100488.31;;;5.89;98.32
46583;BME280;32309;48.858;8.252;2024-03-06T00:51:36;100482.34;;;5.89;98.62
46583;BME280;32309;48.858;8.252;2024-03-06T00:53:37;100478.03;;;5.89;98.58
46583;BME280;32309;48.858;8.252;2024-03-06T00:55:37;100484.00;;;5.90;98.60
46583;BME280;32309;48.858;8.252;2024-03-06T00:57:37;100480.59;;;5.89;98.88
46583;BME280;32309;48.858;8.252;2024-03-06T00:59:37;100473.78;;;5.88;98.62
46583;BME280;32309;48.858;8.252;2024-03-06T01:01:38;100479.84;;;5.86;98.26
46583;BME280;32309;48.858;8.252;2024-03-06T01:03:38;100485.81;;;5.88;98.51
46583;BME280;32309;48.858;8.252;2024-03-06T01:05:39;100494.28;;;5.90;98.87
46583;BME280;32309;48.858;8.252;2024-03-06T01:07:39;100487.50;;;5.89;98.36
46583;BME280;32309;48.858;8.252;2024-03-06T01:09:39;100488.38;;;5.88;98.54
46583;BME280;32309;48.858;8.252;2024-03-06T01:11:40;100483.22;;;5.88;98.32
46583;BME280;32309;48.858;8.252;2024-03-06T01:13:40;100490.06;;;5.89;99.41
46583;BME280;32309;48.858;8.252;2024-03-06T01:15:40;100489.19;;;5.88;98.89
46583;BME280;32309;48.858;8.252;2024-03-06T01:17:41;100485.00;;;5.86;98.78
46583;BME280;32309;48.858;8.252;2024-03-06T01:19:41;100490.16;;;5.86;98.79
46583;BME280;32309;48.858;8.252;2024-03-06T01:21:43;100485.13;;;5.82;98.97
46583;BME280;32309;48.858;8.252;2024-03-06T01:23:43;100489.38;;;5.83;98.77
46583;BME280;32309;48.858;8.252;2024-03-06T01:25:44;100492.78;;;5.84;98.60
46583;BME280;32309;48.858;8.252;2024-03-06T01:27:44;100493.66;;;5.83;98.83
46583;BME280;32309;48.858;8.252;2024-03-06T01:29:44;100499.66;;;5.83;98.89
46583;BME280;32309;48.858;8.252;2024-03-06T01:31:45;100497.97;;;5.82;98.26
46583;BME280;32309;48.858;8.252;2024-03-06T01:33:46;100495.47;;;5.81;98.62
46583;BME280;32309;48.858;8.252;2024-03-06T01:35:47;100495.47;;;5.81;98.57
46583;BME280;32309;48.858;8.252;2024-03-06T01:37:50;100500.59;;;5.81;98.46
46583;BME280;32309;48.858;8.252;2024-03-06T01:39:53;100496.50;;;5.75;97.75
46583;BME280;32309;48.858;8.252;2024-03-06T01:41:54;100502.50;;;5.76;97.93
46583;BME280;32309;48.858;8.252;2024-03-06T01:43:54;100502.56;;;5.73;98.27
46583;BME280;32309;48.858;8.252;2024-03-06T01:45:54;100509.41;;;5.74;98.25
46583;BME280;32309;48.858;8.252;2024-03-06T01:47:55;100512.91;;;5.71;97.91
46583;BME280;32309;48.858;8.252;2024-03-06T01:49:55;100510.28;;;5.73;98.22
46583;BME280;32309;48.858;8.252;2024-03-06T01:51:55;100510.34;;;5.71;98.90
46583;BME280;32309;48.858;8.252;2024-03-06T01:53:57;100514.59;;;5.72;98.99
46583;BME280;32309;48.858;8.252;2024-03-06T01:56:01;100513.84;;;5.70;98.11
46583;BME280;32309;48.858;8.252;2024-03-06T01:58:03;100508.72;;;5.69;98.14
46583;BME280;32309;48.858;8.252;2024-03-06T02:00:06;100517.38;;;5.66;98.32
46583;BME280;32309;48.858;8.252;2024-03-06T02:02:13;100510.53;;;5.66;98.70
46583;BME280;32309;48.858;8.252;2024-03-06T02:04:13;100507.94;;;5.66;99.25
46583;BME280;32309;48.858;8.252;2024-03-06T02:06:14;100507.06;;;5.68;98.53
46583;BME280;32309;48.858;8.252;2024-03-06T02:08:19;100512.09;;;5.71;99.51
46583;BME280;32309;48.858;8.252;2024-03-06T02:10:19;100501.88;;;5.69;99.05
46583;BME280;32309;48.858;8.252;2024-03-06T02:12:20;100505.31;;;5.68;99.09
46583;BME280;32309;48.858;8.252;2024-03-06T02:14:20;100504.44;;;5.69;99.09
46583;BME280;32309;48.858;8.252;2024-03-06T02:16:20;100498.44;;;5.69;99.30
46583;BME280;32309;48.858;8.252;2024-03-06T02:18:21;100500.19;;;5.68;99.58
46583;BME280;32309;48.858;8.252;2024-03-06T02:20:25;100496.78;;;5.68;98.46
46583;BME280;32309;48.858;8.252;2024-03-06T02:22:26;100498.44;;;5.69;98.72
46583;BME280;32309;48.858;8.252;2024-03-06T02:24:26;100498.50;;;5.67;98.11
46583;BME280;32309;48.858;8.252;2024-03-06T02:26:30;100501.06;;;5.67;99.00
46583;BME280;32309;48.858;8.252;2024-03-06T02:28:30;100494.22;;;5.66;98.73
46583;BME280;32309;48.858;8.252;2024-03-06T02:30:31;100495.16;;;5.65;98.95
46583;BME280;32309;48.858;8.252;2024-03-06T02:32:36;100497.75;;;5.63;99.12
46583;BME280;32309;48.858;8.252;2024-03-06T02:34:36;100497.78;;;5.62;98.96
46583;BME280;32309;48.858;8.252;2024-03-06T02:36:37;100498.66;;;5.62;98.97
46583;BME280;32309;48.858;8.252;2024-03-06T02:38:37;100495.22;;;5.62;99.50
46583;BME280;32309;48.858;8.252;2024-03-06T02:40:38;100489.31;;;5.60;99.42
46583;BME280;32309;48.858;8.252;2024-03-06T02:42:38;100492.72;;;5.60;99.88
46583;BME280;32309;48.858;8.252;2024-03-06T02:44:38;100501.31;;;5.59;99.12
46583;BME280;32309;48.858;8.252;2024-03-06T02:46:39;100498.78;;;5.58;99.02
46583;BME280;32309;48.858;8.252;2024-03-06T02:48:39;100498.97;;;5.53;99.51
46583;BME280;32309;48.858;8.252;2024-03-06T02:50:40;100501.56;;;5.52;99.65
46583;BME280;32309;48.858;8.252;2024-03-06T02:52:40;100497.38;;;5.49;99.11
46583;BME280;32309;48.858;8.252;2024-03-06T02:54:41;100506.03;;;5.46;99.60
46583;BME280;32309;48.858;8.252;2024-03-06T02:56:42;100503.50;;;5.45;98.93
46583;BME280;32309;48.858;8.252;2024-03-06T02:58:43;100507.81;;;5.44;100.00
46583;BME280;32309;48.858;8.252;2024-03-06T03:00:45;100505.28;;;5.43;99.74
46583;BME280;32309;48.858;8.252;2024-03-06T03:02:46;100504.50;;;5.41;99.73
46583;BME280;32309;48.858;8.252;2024-03-06T03:04:46;100508.81;;;5.40;100.00
46583;BME280;32309;48.858;8.252;2024-03-06T03:06:47;100511.44;;;5.39;99.68
46583;BME280;32309;48.858;8.252;2024-03-06T03:08:47;100511.38;;;5.40;99.34
46583;BME280;32309;48.858;8.252;2024-03-06T03:10:50;100515.63;;;5.41;100.00
46583;BME280;32309;48.858;8.252;2024-03-06T03:12:51;100512.19;;;5.41;99.82
46583;BME280;32309;48.858;8.252;2024-03-06T03:14:51;100517.28;;;5.42;100.00
46583;BME280;32309;48.858;8.252;2024-03-06T03:16:52;100510.47;;;5.41;100.00
46583;BME280;32309;48.858;8.252;2024-03-06T03:18:53;100518.16;;;5.43;99.82
46583;BME280;32309;48.858;8.252;2024-03-06T03:20:56;100509.56;;;5.44;99.93
46583;BME280;32309;48.858;8.252;2024-03-06T03:22:56;100511.25;;;5.43;100.00
46583;BME280;32309;48.858;8.252;2024-03-06T03:24:57;100513.88;;;5.42;99.78
46583;BME280;32309;48.858;8.252;2024-03-06T03:26:57;100519.84;;;5.42;100.00
46583;BME280;32309;48.858;8.252;2024-03-06T03:28:57;100512.13;;;5.44;100.00
46583;BME280;32309;48.858;8.252;2024-03-06T03:30:58;100513.78;;;5.45;100.00
46583;BME280;32309;48.858;8.252;2024-03-06T03:32:58;100513.78;;;5.45;100.00
46583;BME280;32309;48.858;8.252;2024-03-06T03:34:59;100514.63;;;5.45;100.00
46583;BME280;32309;48.858;8.252;2024-03-06T03:36:59;100516.41;;;5.43;100.00
46583;BME280;32309;48.858;8.252;2024-03-06T03:38:59;100513.00;;;5.43;100.00
46583;BME280;32309;48.858;8.252;2024-03-06T03:41:00;100512.16;;;5.42;100.00
46583;BME280;32309;48.858;8.252;2024-03-06T03:43:00;100513.00;;;5.43;100.00
46583;BME280;32309;48.858;8.252;2024-03-06T03:45:06;100516.34;;;5.45;100.00
46583;BME280;32309;48.858;8.252;2024-03-06T03:47:06;100516.31;;;5.46;100.00
46583;BME280;32309;48.858;8.252;2024-03-06T03:49:06;100523.94;;;5.49;100.00
46583;BME280;32309;48.858;8.252;2024-03-06T03:51:08;100523.00;;;5.52;100.00
46583;BME280;32309;48.858;8.252;2024-03-06T03:53:09;100523.94;;;5.49;100.00
46583;BME280;32309;48.858;8.252;2024-03-06T03:55:09;100526.50;;;5.49;100.00
46583;BME280;32309;48.858;8.252;2024-03-06T03:57:10;100527.38;;;5.48;100.00
46583;BME280;32309;48.858;8.252;2024-03-06T03:59:10;100530.75;;;5.50;100.00
46583;BME280;32309;48.858;8.252;2024-03-06T04:01:11;100531.63;;;5.49;100.00
46583;BME280;32309;48.858;8.252;2024-03-06T04:03:11;100535.09;;;5.48;99.71
46583;BME280;32309;48.858;8.252;2024-03-06T04:05:11;100537.78;;;5.45;99.50
46583;BME280;32309;48.858;8.252;2024-03-06T04:07:12;100541.16;;;5.46;100.00
46583;BME280;32309;48.858;8.252;2024-03-06T04:09:12;100533.50;;;5.44;99.88
46583;BME280;32309;48.858;8.252;2024-03-06T04:11:14;100532.69;;;5.44;100.00
46583;BME280;32309;48.858;8.252;2024-03-06T04:13:15;100537.72;;;5.47;100.00
46583;BME280;32309;48.858;8.252;2024-03-06T04:15:16;100536.88;;;5.46;100.00
46583;BME280;32309;48.858;8.252;2024-03-06T04:17:16;100539.47;;;5.46;99.72
46583;BME280;32309;48.858;8.252;2024-03-06T04:19:16;100542.91;;;5.45;99.79
46583;BME280;32309;48.858;8.252;2024-03-06T04:21:16;100543.84;;;5.43;100.00
46583;BME280;32309;48.858;8.252;2024-03-06T04:23:17;100543.84;;;5.43;99.99
46583;BME280;32309;48.858;8.252;2024-03-06T04:25:17;100545.63;;;5.41;100.00
46583;BME280;32309;48.858;8.252;2024-03-06T04:27:18;100546.56;;;5.38;99.49
46583;BME280;32309;48.858;8.252;2024-03-06T04:29:18;100549.19;;;5.37;100.00
46583;BME280;32309;48.858;8.252;2024-03-06T04:31:18;100551.78;;;5.35;100.00
46583;BME280;32309;48.858;8.252;2024-03-06T04:33:19;100554.38;;;5.35;100.00
46583;BME280;32309;48.858;8.252;2024-03-06T04:35:20;100556.06;;;5.36;100.00
46583;BME280;32309;48.858;8.252;2024-03-06T04:37:20;100556.06;;;5.36;100.00
46583;BME280;32309;48.858;8.252;2024-03-06T04:39:21;100564.66;;;5.35;100.00
46583;BME280;32309;48.858;8.252;2024-03-06T04:41:22;100567.31;;;5.32;100.00
46583;BME280;32309;48.858;8.252;2024-03-06T04:43:23;100560.44;;;5.32;100.00
46583;BME280;32309;48.858;8.252;2024-03-06T04:45:24;100562.97;;;5.34;100.00
46583;BME280;32309;48.858;8.252;2024-03-06T04:47:24;100564.75;;;5.32;100.00
46583;BME280;32309;48.858;8.252;2024-03-06T04:49:25;100571.56;;;5.33;100.00
46583;BME280;32309;48.858;8.252;2024-03-06T04:51:26;100569.91;;;5.30;100.00
46583;BME280;32309;48.858;8.252;2024-03-06T04:53:28;100577.63;;;5.30;100.00
46583;BME280;32309;48.858;8.252;2024-03-06T04:55:29;100586.19;;;5.31;100.00
46583;BME280;32309;48.858;8.252;2024-03-06T04:57:30;100580.19;;;5.32;100.00
46583;BME280;32309;48.858;8.252;2024-03-06T04:59:30;100586.25;;;5.29;100.00
46583;BME280;32309;48.858;8.252;2024-03-06T05:01:32;100588.88;;;5.28;100.00
46583;BME280;32309;48.858;8.252;2024-03-06T05:03:32;100593.16;;;5.27;100.00
46583;BME280;32309;48.858;8.252;2024-03-06T05:05:32;100585.53;;;5.24;100.00
46583;BME280;32309;48.858;8.252;2024-03-06T05:07:33;100584.75;;;5.22;100.00
46583;BME280;32309;48.858;8.252;2024-03-06T05:09:36;100588.94;;;5.25;100.00
46583;BME280;32309;48.858;8.252;2024-03-06T05:11:37;100592.38;;;5.25;100.00
46583;BME280;32309;48.858;8.252;2024-03-06T05:13:38;100597.41;;;5.28;100.00
46583;BME280;32309;48.858;8.252;2024-03-06T05:15:39;100595.66;;;5.29;100.00
46583;BME280;32309;48.858;8.252;2024-03-06T05:17:39;100603.47;;;5.26;100.00
46583;BME280;32309;48.858;8.252;2024-03-06T05:19:39;100601.78;;;5.25;100.00
46583;BME280;32309;48.858;8.252;2024-03-06T05:21:40;100612.06;;;5.25;100.00
46583;BME280;32309;48.858;8.252;2024-03-06T05:23:40;100609.50;;;5.25;100.00
46583;BME280;32309;48.858;8.252;2024-03-06T05:25:40;100618.94;;;5.24;100.00
46583;BME280;32309;48.858;8.252;2024-03-06T05:27:41;100612.19;;;5.22;100.00
46583;BME280;32309;48.858;8.252;2024-03-06T05:29:41;100622.47;;;5.22;100.00
46583;BME280;32309;48.858;8.252;2024-03-06T05:31:43;100628.47;;;5.21;100.00
46583;BME280;32309;48.858;8.252;2024-03-06T05:33:43;100624.22;;;5.20;100.00
46583;BME280;32309;48.858;8.252;2024-03-06T05:35:45;100630.22;;;5.20;100.00
46583;BME280;32309;48.858;8.252;2024-03-06T05:37:45;100633.66;;;5.19;100.00
46583;BME280;32309;48.858;8.252;2024-03-06T05:39:47;100631.91;;;5.20;100.00
46583;BME280;32309;48.858;8.252;2024-03-06T05:41:47;100632.81;;;5.19;100.00
46583;BME280;32309;48.858;8.252;2024-03-06T05:43:48;100634.50;;;5.20;100.00
46583;BME280;32309;48.858;8.252;2024-03-06T05:45:48;100643.91;;;5.21;100.00
46583;BME280;32309;48.858;8.252;2024-03-06T05:47:59;100641.38;;;5.19;100.00
46583;BME280;32309;48.858;8.252;2024-03-06T05:50:06;100637.06;;;5.20;100.00
46583;BME280;32309;48.858;8.252;2024-03-06T05:52:14;100649.84;;;5.23;100.00
46583;BME280;32309;48.858;8.252;2024-03-06T05:54:14;100657.56;;;5.23;100.00
46583;BME280;32309;48.858;8.252;2024-03-06T05:56:14;100655.81;;;5.23;100.00
46583;BME280;32309;48.858;8.252;2024-03-06T05:58:15;100654.94;;;5.24;100.00
46583;BME280;32309;48.858;8.252;2024-03-06T06:00:16;100656.63;;;5.24;100.00
46583;BME280;32309;48.858;8.252;2024-03-06T06:02:18;100666.03;;;5.25;100.00
46583;BME280;32309;48.858;8.252;2024-03-06T06:04:19;100663.47;;;5.25;100.00
46583;BME280;32309;48.858;8.252;2024-03-06T06:06:23;100662.53;;;5.27;100.00
46583;BME280;32309;48.858;8.252;2024-03-06T06:08:23;100659.97;;;5.27;100.00
46583;BME280;32309;48.858;8.252;2024-03-06T06:10:24;100672.00;;;5.27;100.00
46583;BME280;32309;48.858;8.252;2024-03-06T06:12:24;100670.25;;;5.27;100.00
46583;BME280;32309;48.858;8.252;2024-03-06T06:14:24;100678.81;;;5.28;100.00
46583;BME280;32309;48.858;8.252;2024-03-06T06:16:27;100672.00;;;5.27;100.00
46583;BME280;32309;48.858;8.252;2024-03-06T06:18:27;100671.94;;;5.28;100.00
46583;BME280;32309;48.858;8.252;2024-03-06T06:20:27;100670.19;;;5.29;100.00
46583;BME280;32309;48.858;8.252;2024-03-06T06:22:27;100685.56;;;5.32;100.00
46583;BME280;32309;48.858;8.252;2024-03-06T06:24:28;100682.06;;;5.33;100.00
46583;BME280;32309;48.858;8.252;2024-03-06T06:26:29;100685.47;;;5.35;100.00
46583;BME280;32309;48.858;8.252;2024-03-06T06:28:30;100691.41;;;5.37;100.00
46583;BME280;32309;48.858;8.252;2024-03-06T06:30:31;100693.94;;;5.39;100.00
46583;BME280;32309;48.858;8.252;2024-03-06T06:32:32;100693.88;;;5.40;100.00
46583;BME280;32309;48.858;8.252;2024-03-06T06:34:32;100696.41;;;5.42;100.00
46583;BME280;32309;48.858;8.252;2024-03-06T06:36:32;100704.06;;;5.43;100.00
46583;BME280;32309;48.858;8.252;2024-03-06T06:38:32;100699.72;;;5.45;100.00
46583;BME280;32309;48.858;8.252;2024-03-06T06:40:33;100702.25;;;5.47;100.00
46583;BME280;32309;48.858;8.252;2024-03-06T06:42:33;100703.09;;;5.47;100.00
46583;BME280;32309;48.858;8.252;2024-03-06T06:44:34;100709.91;;;5.48;100.00
46583;BME280;32309;48.858;8.252;2024-03-06T06:46:35;100709.81;;;5.52;100.00
46583;BME280;32309;48.858;8.252;2024-03-06T06:48:35;100718.34;;;5.54;100.00
46583;BME280;32309;48.858;8.252;2024-03-06T06:50:35;100716.59;;;5.54;100.00
46583;BME280;32309;48.858;8.252;2024-03-06T06:52:36;100713.16;;;5.55;100.00
46583;BME280;32309;48.858;8.252;2024-03-06T06:54:36;100715.66;;;5.57;100.00
46583;BME280;32309;48.858;8.252;2024-03-06T06:56:36;100728.50;;;5.58;100.00
46583;BME280;32309;48.858;8.252;2024-03-06T06:58:37;100724.09;;;5.62;100.00
46583;BME280;32309;48.858;8.252;2024-03-06T07:00:52;100724.09;;;5.62;100.00
46583;BME280;32309;48.858;8.252;2024-03-06T07:02:53;100733.41;;;5.66;100.00
46583;BME280;32309;48.858;8.252;2024-03-06T07:04:53;100732.50;;;5.67;100.00
46583;BME280;32309;48.858;8.252;2024-03-06T07:06:53;100730.59;;;5.74;100.00
46583;BME280;32309;48.858;8.252;2024-03-06T07:08:53;100730.41;;;5.80;100.00
46583;BME280;32309;48.858;8.252;2024-03-06T07:10:53;100731.19;;;5.83;100.00
46583;BME280;32309;48.858;8.252;2024-03-06T07:12:54;100740.53;;;5.86;100.00
46583;BME280;32309;48.858;8.252;2024-03-06T07:14:55;100743.88;;;5.88;100.00
46583;BME280;32309;48.858;8.252;2024-03-06T07:16:55;100730.97;;;5.90;100.00
46583;BME280;32309;48.858;8.252;2024-03-06T07:18:56;100738.66;;;5.91;100.00
46583;BME280;32309;48.858;8.252;2024-03-06T07:20:56;100741.25;;;5.91;100.00
46583;BME280;32309;48.858;8.252;2024-03-06T07:22:56;100737.75;;;5.92;100.00
46583;BME280;32309;48.858;8.252;2024-03-06T07:24:57;100741.13;;;5.94;100.00
46583;BME280;32309;48.858;8.252;2024-03-06T07:26:57;100744.53;;;5.95;100.00
46583;BME280;32309;48.858;8.252;2024-03-06T07:28:58;100737.69;;;5.95;100.00
46583;BME280;32309;48.858;8.252;2024-03-06T07:30:58;100742.81;;;5.95;100.00
46583;BME280;32309;48.858;8.252;2024-03-06T07:32:59;100744.47;;;5.96;100.00
46583;BME280;32309;48.858;8.252;2024-03-06T07:34:59;100742.81;;;5.95;100.00
46583;BME280;32309;48.858;8.252;2024-03-06T07:36:59;100743.72;;;5.94;100.00
46583;BME280;32309;48.858;8.252;2024-03-06T07:39:00;100747.97;;;5.95;100.00
46583;BME280;32309;48.858;8.252;2024-03-06T07:41:01;100745.41;;;5.95;100.00
46583;BME280;32309;48.858;8.252;2024-03-06T07:43:02;100745.44;;;5.94;100.00
46583;BME280;32309;48.858;8.252;2024-03-06T07:45:05;100748.81;;;5.96;100.00
46583;BME280;32309;48.858;8.252;2024-03-06T07:47:07;100746.16;;;5.99;100.00
46583;BME280;32309;48.858;8.252;2024-03-06T07:49:08;100755.56;;;6.00;100.00
46583;BME280;32309;48.858;8.252;2024-03-06T07:51:09;100753.00;;;6.00;100.00
46583;BME280;32309;48.858;8.252;2024-03-06T07:53:09;100750.47;;;5.98;100.00
46583;BME280;32309;48.858;8.252;2024-03-06T07:55:10;100757.25;;;6.01;100.00
46583;BME280;32309;48.858;8.252;2024-03-06T07:57:10;100754.69;;;6.01;100.00
46583;BME280;32309;48.858;8.252;2024-03-06T07:59:10;100758.94;;;6.02;100.00
46583;BME280;32309;48.858;8.252;2024-03-06T08:01:12;100758.91;;;6.04;99.80
46583;BME280;32309;48.858;8.252;2024-03-06T08:03:12;100763.22;;;6.02;99.93
46583;BME280;32309;48.858;8.252;2024-03-06T08:05:13;100759.88;;;5.99;100.00
46583;BME280;32309;48.858;8.252;2024-03-06T08:07:14;100770.19;;;5.99;99.07
46583;BME280;32309;48.858;8.252;2024-03-06T08:09:14;100774.47;;;5.99;99.84
46583;BME280;32309;48.858;8.252;2024-03-06T08:11:16;100772.75;;;5.99;99.80
46583;BME280;32309;48.858;8.252;2024-03-06T08:13:17;100774.47;;;5.99;99.39
46583;BME280;32309;48.858;8.252;2024-03-06T08:15:24;100774.44;;;6.01;99.02
46583;BME280;32309;48.858;8.252;2024-03-06T08:17:25;100777.94;;;5.96;98.69
46583;BME280;32309;48.858;8.252;2024-03-06T08:19:27;100777.91;;;5.99;98.15
46583;BME280;32309;48.858;8.252;2024-03-06T08:21:28;100777.84;;;6.01;98.99
46583;BME280;32309;48.858;8.252;2024-03-06T08:23:35;100786.31;;;6.05;98.64
46583;BME280;32309;48.858;8.252;2024-03-06T08:25:36;100787.09;;;6.07;98.36
46583;BME280;32309;48.858;8.252;2024-03-06T08:27:37;100774.19;;;6.08;99.15
46583;BME280;32309;48.858;8.252;2024-03-06T08:29:39;100783.53;;;6.11;99.23
46583;BME280;32309;48.858;8.252;2024-03-06T08:31:39;100780.09;;;6.12;98.83
46583;BME280;32309;48.858;8.252;2024-03-06T08:33:39;100782.66;;;6.12;98.08
46583;BME280;32309;48.858;8.252;2024-03-06T08:35:39;100785.22;;;6.12;98.21
46583;BME280;32309;48.858;8.252;2024-03-06T08:37:46;100787.91;;;6.09;97.91
46583;BME280;32309;48.858;8.252;2024-03-06T08:39:46;100787.84;;;6.10;98.30
46583;BME280;32309;48.858;8.252;2024-03-06T08:41:48;100787.91;;;6.09;98.60
46583;BME280;32309;48.858;8.252;2024-03-06T08:43:48;100795.63;;;6.09;98.06
46583;BME280;32309;48.858;8.252;2024-03-06T08:45:51;100800.00;;;6.05;98.66
46583;BME280;32309;48.858;8.252;2024-03-06T08:47:51;100796.63;;;6.05;98.41
46583;BME280;32309;48.858;8.252;2024-03-06T08:49:54;100798.31;;;6.04;99.51
46583;BME280;32309;48.858;8.252;2024-03-06T08:51:57;100788.88;;;6.05;98.91
46583;BME280;32309;48.858;8.252;2024-03-06T08:53:57;100791.47;;;6.05;98.85
46583;BME280;32309;48.858;8.252;2024-03-06T08:55:58;100794.88;;;6.05;99.30
46583;BME280;32309;48.858;8.252;2024-03-06T08:57:59;100796.66;;;6.03;99.89
46583;BME280;32309;48.858;8.252;2024-03-06T09:00:01;100801.72;;;6.06;99.26
46583;BME280;32309;48.858;8.252;2024-03-06T09:02:12;100803.41;;;6.07;100.00
46583;BME280;32309;48.858;8.252;2024-03-06T09:04:17;100804.19;;;6.09;100.00
46583;BME280;32309;48.858;8.252;2024-03-06T09:06:17;100804.09;;;6.12;100.00
46583;BME280;32309;48.858;8.252;2024-03-06T09:08:18;100806.63;;;6.14;100.00
46583;BME280;32309;48.858;8.252;2024-03-06T09:10:18;100804.75;;;6.19;100.00
46583;BME280;32309;48.858;8.252;2024-03-06T09:12:19;100807.22;;;6.22;100.00
46583;BME280;32309;48.858;8.252;2024-03-06T09:14:19;100803.59;;;6.28;100.00
46583;BME280;32309;48.858;8.252;2024-03-06T09:16:20;100810.31;;;6.33;100.00
46583;BME280;32309;48.858;8.252;2024-03-06T09:18:20;100805.81;;;6.40;99.85
46583;BME280;32309;48.858;8.252;2024-03-06T09:20:21;100809.94;;;6.46;100.00
46583;BME280;32309;48.858;8.252;2024-03-06T09:22:24;100810.63;;;6.51;100.00
46583;BME280;32309;48.858;8.252;2024-03-06T09:24:24;100804.47;;;6.55;100.00
46583;BME280;32309;48.858;8.252;2024-03-06T09:26:25;100810.28;;;6.62;100.00
46583;BME280;32309;48.858;8.252;2024-03-06T09:28:25;100817.06;;;6.64;100.00
46583;BME280;32309;48.858;8.252;2024-03-06T09:30:25;100815.28;;;6.66;100.00
46583;BME280;32309;48.858;8.252;2024-03-06T09:32:25;100814.25;;;6.72;100.00
46583;BME280;32309;48.858;8.252;2024-03-06T09:34:26;100816.63;;;6.78;99.27
46583;BME280;32309;48.858;8.252;2024-03-06T09:36:26;100809.66;;;6.80;99.85
46583;BME280;32309;48.858;8.252;2024-03-06T09:38:26;100817.16;;;6.88;99.44
46583;BME280;32309;48.858;8.252;2024-03-06T09:40:27;100822.16;;;6.93;98.68
46583;BME280;32309;48.858;8.252;2024-03-06T09:42:29;100820.38;;;6.95;98.21
46583;BME280;32309;48.858;8.252;2024-03-06T09:44:32;100822.78;;;6.99;98.88
46583;BME280;32309;48.858;8.252;2024-03-06T09:46:33;100827.84;;;7.03;98.06
46583;BME280;32309;48.858;8.252;2024-03-06T09:48:36;100831.16;;;7.06;98.18
46583;BME280;32309;48.858;8.252;2024-03-06T09:50:46;100829.31;;;7.10;98.06
46583;BME280;32309;48.858;8.252;2024-03-06T09:52:51;100818.16;;;7.09;97.82
46583;BME280;32309;48.858;8.252;2024-03-06T09:54:55;100821.47;;;7.13;97.98
46583;BME280;32309;48.858;8.252;2024-03-06T09:56:56;100828.34;;;7.12;97.17
46583;BME280;32309;48.858;8.252;2024-03-06T09:58:58;100817.16;;;7.13;97.41
46583;BME280;32309;48.858;8.252;2024-03-06T10:01:03;100828.34;;;7.12;97.06
46583;BME280;32309;48.858;8.252;2024-03-06T10:03:07;100823.88;;;7.18;97.48
46583;BME280;32309;48.858;8.252;2024-03-06T10:05:20;100827.22;;;7.21;98.31
46583;BME280;32309;48.858;8.252;2024-03-06T10:07:24;100820.09;;;7.28;97.68
46583;BME280;32309;48.858;8.252;2024-03-06T10:09:24;100826.88;;;7.30;98.16
46583;BME280;32309;48.858;8.252;2024-03-06T10:11:27;100826.75;;;7.35;98.57
46583;BME280;32309;48.858;8.252;2024-03-06T10:13:27;100825.72;;;7.39;98.32
46583;BME280;32309;48.858;8.252;2024-03-06T10:15:29;100831.78;;;7.38;96.70
46583;BME280;32309;48.858;8.252;2024-03-06T10:17:32;100831.72;;;7.40;97.18
46583;BME280;32309;48.858;8.252;2024-03-06T10:19:32;100829.09;;;7.41;97.04
46583;BME280;32309;48.858;8.252;2024-03-06T10:21:34;100826.34;;;7.46;96.88
46583;BME280;32309;48.858;8.252;2024-03-06T10:23:35;100827.13;;;7.48;96.74
46583;BME280;32309;48.858;8.252;2024-03-06T10:25:35;100836.41;;;7.54;95.46
46583;BME280;32309;48.858;8.252;2024-03-06T10:27:39;100831.06;;;7.58;94.99
46583;BME280;32309;48.858;8.252;2024-03-06T10:29:39;100834.53;;;7.57;94.92
46583;BME280;32309;48.858;8.252;2024-03-06T10:31:39;100840.38;;;7.62;95.25
46583;BME280;32309;48.858;8.252;2024-03-06T10:33:42;100837.78;;;7.62;94.66
46583;BME280;32309;48.858;8.252;2024-03-06T10:35:43;100837.72;;;7.64;94.93
46583;BME280;32309;48.858;8.252;2024-03-06T10:37:45;100842.00;;;7.65;94.30